sensor_id;sensor_type;location;lat;lon;timestamp;pressure;altitude;pressure_sealevel;temperature;humidity
64064;BME280;50314;50.618;10.642;2023-05-03T00:02:09;97632.44;;;18.49;22.75
64064;BME280;50314;50.618;10.642;2023-05-03T00:04:36;97628.09;;;18.48;22.91
64064;BME280;50314;50.618;10.642;2023-05-03T00:07:02;97639.03;;;18.45;22.92
64064;BME280;50314;50.618;10.642;2023-05-03T00:09:28;97637.34;;;18.44;22.80
64064;BME280;50314;50.618;10.642;2023-05-03T00:11:53;97639.16;;;18.43;22.90
64064;BME280;50314;50.618;10.642;2023-05-03T00:14:19;97627.81;;;18.41;23.23
64064;BME280;50314;50.618;10.642;2023-05-03T00:16:44;97625.44;;;18.38;23.22
64064;BME280;50314;50.618;10.642;2023-05-03T00:19:10;97621.22;;;18.36;23.27
64064;BME280;50314;50.618;10.642;2023-05-03T00:21:35;97619.53;;;18.35;23.24
64064;BME280;50314;50.618;10.642;2023-05-03T00:24:01;97615.31;;;18.32;23.28
64064;BME280;50314;50.618;10.642;2023-05-03T00:26:27;97616.59;;;18.28;23.34
64064;BME280;50314;50.618;10.642;2023-05-03T00:28:52;97614.88;;;18.27;23.03
64064;BME280;50314;50.618;10.642;2023-05-03T00:31:18;97618.69;;;18.24;23.33
64064;BME280;50314;50.618;10.642;2023-05-03T00:33:43;97618.69;;;18.24;22.97
64064;BME280;50314;50.618;10.642;2023-05-03T00:36:10;97617.97;;;18.22;23.29
64064;BME280;50314;50.618;10.642;2023-05-03T00:38:36;97620.91;;;18.19;23.22
64064;BME280;50314;50.618;10.642;2023-05-03T00:41:02;97611.25;;;18.18;23.38
64064;BME280;50314;50.618;10.642;2023-05-03T00:43:28;97606.03;;;18.17;23.09
64064;BME280;50314;50.618;10.642;2023-05-03T00:45:54;97600.00;;;18.15;23.17
64064;BME280;50314;50.618;10.642;2023-05-03T00:48:20;97604.63;;;18.13;23.40
64064;BME280;50314;50.618;10.642;2023-05-03T00:50:48;97604.88;;;18.09;23.24
64064;BME280;50314;50.618;10.642;2023-05-03T00:53:15;97608.41;;;18.10;23.12
64064;BME280;50314;50.618;10.642;2023-05-03T00:55:41;97613.88;;;18.08;23.06
64064;BME280;50314;50.618;10.642;2023-05-03T00:58:07;97609.38;;;18.09;23.05
64064;BME280;50314;50.618;10.642;2023-05-03T01:00:33;97604.19;;;18.07;23.45
64064;BME280;50314;50.618;10.642;2023-05-03T01:02:58;97605.16;;;18.06;23.35
64064;BME280;50314;50.618;10.642;2023-05-03T01:05:27;97616.13;;;18.03;23.53
64064;BME280;50314;50.618;10.642;2023-05-03T01:10:54;97613.44;;;17.94;23.26
64064;BME280;50314;50.618;10.642;2023-05-03T01:18:36;97612.44;;;17.95;23.62
64064;BME280;50314;50.618;10.642;2023-05-03T01:21:03;97610.78;;;17.94;23.06
64064;BME280;50314;50.618;10.642;2023-05-03T01:23:45;97605.97;;;17.88;23.56
64064;BME280;50314;50.618;10.642;2023-05-03T01:26:19;97604.88;;;17.90;23.42
64064;BME280;50314;50.618;10.642;2023-05-03T01:28:45;97597.00;;;17.89;23.61
64064;BME280;50314;50.618;10.642;2023-05-03T01:31:18;97593.66;;;17.87;23.27
64064;BME280;50314;50.618;10.642;2023-05-03T01:33:58;97598.53;;;17.81;23.74
64064;BME280;50314;50.618;10.642;2023-05-03T01:36:29;97595.88;;;17.81;23.55
64064;BME280;50314;50.618;10.642;2023-05-03T01:39:17;97585.75;;;17.75;23.74
64064;BME280;50314;50.618;10.642;2023-05-03T01:41:44;97582.97;;;17.77;23.41
64064;BME280;50314;50.618;10.642;2023-05-03T01:44:11;97585.75;;;17.75;23.35
64064;BME280;50314;50.618;10.642;2023-05-03T01:46:43;97587.72;;;17.73;23.42
64064;BME280;50314;50.618;10.642;2023-05-03T01:49:09;97596.41;;;17.75;23.48
64064;BME280;50314;50.618;10.642;2023-05-03T01:51:35;97593.06;;;17.73;23.64
64064;BME280;50314;50.618;10.642;2023-05-03T01:54:00;97588.69;;;17.72;23.34
64064;BME280;50314;50.618;10.642;2023-05-03T01:56:26;97590.66;;;17.70;23.67
64064;BME280;50314;50.618;10.642;2023-05-03T01:58:52;97596.13;;;17.69;23.66
64064;BME280;50314;50.618;10.642;2023-05-03T02:01:17;97586.56;;;17.66;23.71
64064;BME280;50314;50.618;10.642;2023-05-03T02:03:42;97588.53;;;17.64;23.52
64064;BME280;50314;50.618;10.642;2023-05-03T02:06:08;97586.88;;;17.63;23.46
64064;BME280;50314;50.618;10.642;2023-05-03T02:08:33;97590.50;;;17.62;23.50
64064;BME280;50314;50.618;10.642;2023-05-03T02:10:59;97591.63;;;17.59;23.70
64064;BME280;50314;50.618;10.642;2023-05-03T02:13:24;97599.47;;;17.61;23.37
64064;BME280;50314;50.618;10.642;2023-05-03T02:15:50;97595.13;;;17.60;23.58
64064;BME280;50314;50.618;10.642;2023-05-03T02:18:15;97597.06;;;17.58;23.66
64064;BME280;50314;50.618;10.642;2023-05-03T02:20:44;97606.06;;;17.57;23.68
64064;BME280;50314;50.618;10.642;2023-05-03T02:23:10;97596.50;;;17.54;23.37
64064;BME280;50314;50.618;10.642;2023-05-03T02:25:36;97595.66;;;17.54;23.39
64064;BME280;50314;50.618;10.642;2023-05-03T02:28:02;97609.97;;;17.53;23.40
64064;BME280;50314;50.618;10.642;2023-05-03T02:30:27;97608.41;;;17.50;23.71
64064;BME280;50314;50.618;10.642;2023-05-03T02:32:53;97612.19;;;17.48;23.75
64064;BME280;50314;50.618;10.642;2023-05-03T02:35:18;97605.25;;;17.45;23.73
64064;BME280;50314;50.618;10.642;2023-05-03T02:37:44;97607.09;;;17.45;23.53
64064;BME280;50314;50.618;10.642;2023-05-03T02:40:09;97614.25;;;17.44;23.52
64064;BME280;50314;50.618;10.642;2023-05-03T02:42:35;97613.66;;;17.41;23.60
64064;BME280;50314;50.618;10.642;2023-05-03T02:45:01;97612.94;;;17.38;23.54
64064;BME280;50314;50.618;10.642;2023-05-03T02:47:27;97613.94;;;17.37;23.58
64064;BME280;50314;50.618;10.642;2023-05-03T02:49:52;97614.09;;;17.36;23.80
64064;BME280;50314;50.618;10.642;2023-05-03T02:52:18;97616.13;;;17.32;23.58
64064;BME280;50314;50.618;10.642;2023-05-03T02:54:43;97623.44;;;17.30;23.59
64064;BME280;50314;50.618;10.642;2023-05-03T02:57:11;97625.38;;;17.28;23.88
64064;BME280;50314;50.618;10.642;2023-05-03T02:59:37;97630.13;;;17.25;23.78
64064;BME280;50314;50.618;10.642;2023-05-03T03:02:02;97622.28;;;17.23;24.13
64064;BME280;50314;50.618;10.642;2023-05-03T03:04:27;97617.91;;;17.22;23.58
64064;BME280;50314;50.618;10.642;2023-05-03T03:06:53;97614.41;;;17.22;23.74
64064;BME280;50314;50.618;10.642;2023-05-03T03:09:19;97618.91;;;17.21;23.99
64064;BME280;50314;50.618;10.642;2023-05-03T03:11:45;97613.00;;;17.18;23.86
64064;BME280;50314;50.618;10.642;2023-05-03T03:14:10;97606.84;;;17.17;23.89
64064;BME280;50314;50.618;10.642;2023-05-03T03:16:35;97610.50;;;17.16;24.06
64064;BME280;50314;50.618;10.642;2023-05-03T03:19:01;97607.09;;;17.14;23.76
64064;BME280;50314;50.618;10.642;2023-05-03T03:21:26;97610.03;;;17.11;24.09
64064;BME280;50314;50.618;10.642;2023-05-03T03:23:53;97608.34;;;17.10;23.85
64064;BME280;50314;50.618;10.642;2023-05-03T03:26:18;97607.63;;;17.08;23.98
64064;BME280;50314;50.618;10.642;2023-05-03T03:28:44;97609.44;;;17.07;24.15
64064;BME280;50314;50.618;10.642;2023-05-03T03:31:09;97608.72;;;17.05;24.07
64064;BME280;50314;50.618;10.642;2023-05-03T03:33:35;97610.56;;;17.05;23.90
64064;BME280;50314;50.618;10.642;2023-05-03T03:36:00;97609.97;;;17.01;24.14
64064;BME280;50314;50.618;10.642;2023-05-03T03:38:26;97618.94;;;17.00;24.11
64064;BME280;50314;50.618;10.642;2023-05-03T03:40:51;97620.88;;;16.98;24.22
64064;BME280;50314;50.618;10.642;2023-05-03T03:43:18;97612.31;;;16.95;24.07
64064;BME280;50314;50.618;10.642;2023-05-03T03:45:44;97620.56;;;16.91;24.07
64064;BME280;50314;50.618;10.642;2023-05-03T03:48:10;97624.94;;;16.93;24.17
64064;BME280;50314;50.618;10.642;2023-05-03T03:50:35;97625.75;;;16.93;24.16
64064;BME280;50314;50.618;10.642;2023-05-03T03:53:01;97630.25;;;16.93;24.21
64064;BME280;50314;50.618;10.642;2023-05-03T03:55:27;97626.88;;;16.90;24.12
64064;BME280;50314;50.618;10.642;2023-05-03T03:57:52;97632.06;;;16.92;23.95
64064;BME280;50314;50.618;10.642;2023-05-03T04:00:18;97640.91;;;16.93;24.17
64064;BME280;50314;50.618;10.642;2023-05-03T04:02:43;97645.38;;;16.92;23.94
64064;BME280;50314;50.618;10.642;2023-05-03T04:05:08;97644.50;;;16.91;23.97
64064;BME280;50314;50.618;10.642;2023-05-03T04:07:34;97643.81;;;16.89;24.20
64064;BME280;50314;50.618;10.642;2023-05-03T04:09:59;97649.97;;;16.90;24.04
64064;BME280;50314;50.618;10.642;2023-05-03T04:12:25;97647.31;;;16.90;24.27
64064;BME280;50314;50.618;10.642;2023-05-03T04:14:50;97642.81;;;16.90;24.01
64064;BME280;50314;50.618;10.642;2023-05-03T04:17:16;97649.00;;;16.91;24.02
64064;BME280;50314;50.618;10.642;2023-05-03T04:19:41;97637.66;;;16.89;23.97
64064;BME280;50314;50.618;10.642;2023-05-03T04:22:07;97649.25;;;16.88;24.09
64064;BME280;50314;50.618;10.642;2023-05-03T04:24:33;97654.56;;;16.88;24.21
64064;BME280;50314;50.618;10.642;2023-05-03T04:26:59;97656.38;;;16.87;24.10
64064;BME280;50314;50.618;10.642;2023-05-03T04:29:28;97654.81;;;16.85;24.10
64064;BME280;50314;50.618;10.642;2023-05-03T04:31:54;97653.97;;;16.84;24.21
64064;BME280;50314;50.618;10.642;2023-05-03T04:34:19;97659.56;;;16.81;24.24
64064;BME280;50314;50.618;10.642;2023-05-03T04:36:46;97654.25;;;16.81;24.17
64064;BME280;50314;50.618;10.642;2023-05-03T04:39:11;97653.50;;;16.79;24.20
64064;BME280;50314;50.618;10.642;2023-05-03T04:41:39;97654.38;;;16.80;24.28
64064;BME280;50314;50.618;10.642;2023-05-03T04:44:04;97662.44;;;16.78;24.02
64064;BME280;50314;50.618;10.642;2023-05-03T04:46:30;97666.09;;;16.77;24.14
64064;BME280;50314;50.618;10.642;2023-05-03T04:48:55;97659.09;;;16.76;24.12
64064;BME280;50314;50.618;10.642;2023-05-03T04:51:22;97665.41;;;16.75;24.25
64064;BME280;50314;50.618;10.642;2023-05-03T04:53:48;97664.53;;;16.75;24.11
64064;BME280;50314;50.618;10.642;2023-05-03T04:56:14;97667.06;;;16.76;24.16
64064;BME280;50314;50.618;10.642;2023-05-03T04:58:39;97670.72;;;16.75;24.22
64064;BME280;50314;50.618;10.642;2023-05-03T05:01:05;97672.41;;;16.76;24.26
64064;BME280;50314;50.618;10.642;2023-05-03T05:03:31;97675.75;;;16.78;24.28
64064;BME280;50314;50.618;10.642;2023-05-03T05:05:57;97684.50;;;16.80;24.35
64064;BME280;50314;50.618;10.642;2023-05-03T05:08:22;97680.84;;;16.81;24.27
64064;BME280;50314;50.618;10.642;2023-05-03T05:10:48;97683.50;;;16.81;24.09
64064;BME280;50314;50.618;10.642;2023-05-03T05:13:13;97677.22;;;16.82;24.13
64064;BME280;50314;50.618;10.642;2023-05-03T05:15:39;97678.78;;;16.85;24.26
64064;BME280;50314;50.618;10.642;2023-05-03T05:18:04;97679.50;;;16.87;24.27
64064;BME280;50314;50.618;10.642;2023-05-03T05:20:30;97685.53;;;16.89;24.12
64064;BME280;50314;50.618;10.642;2023-05-03T05:22:55;97690.72;;;16.90;24.23
64064;BME280;50314;50.618;10.642;2023-05-03T05:25:21;97683.47;;;16.93;24.23
64064;BME280;50314;50.618;10.642;2023-05-03T05:27:46;97682.47;;;16.94;23.99
64064;BME280;50314;50.618;10.642;2023-05-03T05:30:12;97675.09;;;16.97;24.22
64064;BME280;50314;50.618;10.642;2023-05-03T05:32:38;97682.66;;;17.02;24.07
64064;BME280;50314;50.618;10.642;2023-05-03T05:35:03;97684.50;;;17.01;24.06
64064;BME280;50314;50.618;10.642;2023-05-03T05:37:30;97684.38;;;17.03;23.97
64064;BME280;50314;50.618;10.642;2023-05-03T05:39:55;97687.88;;;17.03;24.00
64064;BME280;50314;50.618;10.642;2023-05-03T05:42:21;97686.06;;;17.04;24.21
64064;BME280;50314;50.618;10.642;2023-05-03T05:44:46;97675.00;;;17.08;24.16
64064;BME280;50314;50.618;10.642;2023-05-03T05:47:12;97682.16;;;17.08;24.21
64064;BME280;50314;50.618;10.642;2023-05-03T05:49:37;97683.56;;;17.12;23.97
64064;BME280;50314;50.618;10.642;2023-05-03T05:52:03;97685.13;;;17.14;24.01
64064;BME280;50314;50.618;10.642;2023-05-03T05:54:29;97683.88;;;17.19;24.18
64064;BME280;50314;50.618;10.642;2023-05-03T05:56:54;97684.47;;;17.22;24.21
64064;BME280;50314;50.618;10.642;2023-05-03T05:59:20;97689.53;;;17.25;24.20
64064;BME280;50314;50.618;10.642;2023-05-03T06:01:45;97676.81;;;17.29;24.18
64064;BME280;50314;50.618;10.642;2023-05-03T06:04:12;97678.94;;;17.35;24.05
64064;BME280;50314;50.618;10.642;2023-05-03T06:06:38;97678.56;;;17.40;24.16
64064;BME280;50314;50.618;10.642;2023-05-03T06:09:03;97685.16;;;17.45;23.97
64064;BME280;50314;50.618;10.642;2023-05-03T06:11:29;97691.81;;;17.51;24.00
64064;BME280;50314;50.618;10.642;2023-05-03T06:13:56;97687.78;;;17.56;24.16
64064;BME280;50314;50.618;10.642;2023-05-03T06:16:22;97690.75;;;17.63;24.17
64064;BME280;50314;50.618;10.642;2023-05-03T06:18:48;97690.06;;;17.71;24.06
64064;BME280;50314;50.618;10.642;2023-05-03T06:21:14;97684.22;;;17.77;24.21
64064;BME280;50314;50.618;10.642;2023-05-03T06:23:39;97688.88;;;17.84;24.28
64064;BME280;50314;50.618;10.642;2023-05-03T06:26:05;97703.31;;;17.92;23.97
64064;BME280;50314;50.618;10.642;2023-05-03T06:28:31;97694.66;;;17.99;23.76
64064;BME280;50314;50.618;10.642;2023-05-03T06:30:56;97696.66;;;18.07;23.62
64064;BME280;50314;50.618;10.642;2023-05-03T06:33:21;97695.16;;;18.14;23.55
64064;BME280;50314;50.618;10.642;2023-05-03T06:35:47;97697.13;;;18.22;23.50
64064;BME280;50314;50.618;10.642;2023-05-03T06:38:12;97696.44;;;18.29;23.62
64064;BME280;50314;50.618;10.642;2023-05-03T06:40:38;97698.44;;;18.37;23.70
64064;BME280;50314;50.618;10.642;2023-05-03T06:43:05;97705.44;;;18.38;23.61
64064;BME280;50314;50.618;10.642;2023-05-03T06:45:31;97701.34;;;18.53;23.80
64064;BME280;50314;50.618;10.642;2023-05-03T06:47:56;97688.03;;;18.63;23.87
64064;BME280;50314;50.618;10.642;2023-05-03T06:50:21;97696.03;;;18.73;23.39
64064;BME280;50314;50.618;10.642;2023-05-03T06:52:48;97704.06;;;18.83;23.01
64064;BME280;50314;50.618;10.642;2023-05-03T06:55:15;97695.06;;;18.93;22.53
64064;BME280;50314;50.618;10.642;2023-05-03T06:57:40;97695.06;;;19.03;22.89
64064;BME280;50314;50.618;10.642;2023-05-03T07:00:07;97700.41;;;19.13;22.98
64064;BME280;50314;50.618;10.642;2023-05-03T07:02:33;97695.03;;;19.22;22.67
64064;BME280;50314;50.618;10.642;2023-05-03T07:04:58;97688.84;;;19.32;22.60
64064;BME280;50314;50.618;10.642;2023-05-03T07:07:24;97689.69;;;19.42;22.66
64064;BME280;50314;50.618;10.642;2023-05-03T07:09:49;97692.16;;;19.53;22.72
64064;BME280;50314;50.618;10.642;2023-05-03T07:12:15;97693.09;;;19.62;22.92
64064;BME280;50314;50.618;10.642;2023-05-03T07:14:41;97687.59;;;19.73;22.79
64064;BME280;50314;50.618;10.642;2023-05-03T07:17:07;97683.88;;;19.84;22.42
64064;BME280;50314;50.618;10.642;2023-05-03T07:19:33;97681.16;;;19.93;21.95
64064;BME280;50314;50.618;10.642;2023-05-03T07:21:58;97681.81;;;20.05;22.21
64064;BME280;50314;50.618;10.642;2023-05-03T07:24:24;97678.25;;;20.14;21.81
64064;BME280;50314;50.618;10.642;2023-05-03T07:26:51;97678.00;;;20.26;22.04
64064;BME280;50314;50.618;10.642;2023-05-03T07:29:16;97672.47;;;20.37;21.90
64064;BME280;50314;50.618;10.642;2023-05-03T07:31:42;97670.56;;;20.47;22.03
64064;BME280;50314;50.618;10.642;2023-05-03T07:34:09;97671.31;;;20.57;22.04
64064;BME280;50314;50.618;10.642;2023-05-03T07:36:34;97673.78;;;20.69;21.97
64064;BME280;50314;50.618;10.642;2023-05-03T07:39:00;97668.34;;;20.78;21.85
64064;BME280;50314;50.618;10.642;2023-05-03T07:41:25;97672.47;;;20.91;22.11
64064;BME280;50314;50.618;10.642;2023-05-03T07:43:51;97668.72;;;21.01;21.85
64064;BME280;50314;50.618;10.642;2023-05-03T07:46:16;97676.47;;;21.12;21.82
64064;BME280;50314;50.618;10.642;2023-05-03T07:48:41;97667.22;;;21.25;21.65
64064;BME280;50314;50.618;10.642;2023-05-03T07:51:07;97673.31;;;21.35;21.84
64064;BME280;50314;50.618;10.642;2023-05-03T07:53:32;97671.38;;;21.45;21.89
64064;BME280;50314;50.618;10.642;2023-05-03T07:55:59;97660.34;;;21.56;21.47
64064;BME280;50314;50.618;10.642;2023-05-03T07:58:25;97660.94;;;21.68;21.51
64064;BME280;50314;50.618;10.642;2023-05-03T08:00:51;97660.66;;;21.79;20.73
64064;BME280;50314;50.618;10.642;2023-05-03T08:03:16;97655.63;;;21.85;19.30
64064;BME280;50314;50.618;10.642;2023-05-03T08:05:42;97662.22;;;21.90;18.20
64064;BME280;50314;50.618;10.642;2023-05-03T08:08:08;97660.56;;;21.97;18.47
64064;BME280;50314;50.618;10.642;2023-05-03T08:10:34;97661.25;;;22.08;18.36
64064;BME280;50314;50.618;10.642;2023-05-03T08:13:03;97666.34;;;22.19;19.02
64064;BME280;50314;50.618;10.642;2023-05-03T08:15:30;97656.50;;;22.36;19.14
64064;BME280;50314;50.618;10.642;2023-05-03T08:17:55;97657.03;;;22.64;19.60
64064;BME280;50314;50.618;10.642;2023-05-03T08:20:22;97659.22;;;23.01;19.29
64064;BME280;50314;50.618;10.642;2023-05-03T08:22:47;97665.41;;;23.42;19.30
64064;BME280;50314;50.618;10.642;2023-05-03T08:25:13;97667.78;;;23.85;19.09
64064;BME280;50314;50.618;10.642;2023-05-03T08:27:41;97666.06;;;24.31;18.80
64064;BME280;50314;50.618;10.642;2023-05-03T08:30:07;97665.06;;;24.78;18.39
64064;BME280;50314;50.618;10.642;2023-05-03T08:32:33;97665.69;;;25.26;17.85
64064;BME280;50314;50.618;10.642;2023-05-03T08:34:59;97657.63;;;25.71;17.71
64064;BME280;50314;50.618;10.642;2023-05-03T08:37:24;97654.22;;;26.13;17.35
64064;BME280;50314;50.618;10.642;2023-05-03T08:39:50;97655.97;;;26.57;16.74
64064;BME280;50314;50.618;10.642;2023-05-03T08:42:16;97660.09;;;26.96;16.71
64064;BME280;50314;50.618;10.642;2023-05-03T08:44:46;97654.56;;;27.32;16.10
64064;BME280;50314;50.618;10.642;2023-05-03T08:47:15;97647.72;;;27.71;15.87
64064;BME280;50314;50.618;10.642;2023-05-03T08:49:42;97642.31;;;28.13;15.99
64064;BME280;50314;50.618;10.642;2023-05-03T08:52:09;97638.91;;;28.52;15.60
64064;BME280;50314;50.618;10.642;2023-05-03T08:54:36;97643.56;;;28.91;15.28
64064;BME280;50314;50.618;10.642;2023-05-03T08:57:02;97642.66;;;29.31;14.88
64064;BME280;50314;50.618;10.642;2023-05-03T08:59:27;97642.44;;;29.59;14.63
64064;BME280;50314;50.618;10.642;2023-05-03T09:01:54;97639.47;;;29.73;14.37
64064;BME280;50314;50.618;10.642;2023-05-03T09:04:20;97640.72;;;29.71;13.67
64064;BME280;50314;50.618;10.642;2023-05-03T09:07:12;97640.38;;;29.47;11.53
64064;BME280;50314;50.618;10.642;2023-05-03T09:09:40;97639.75;;;29.32;11.69
64064;BME280;50314;50.618;10.642;2023-05-03T09:12:05;97647.28;;;29.17;11.57
64064;BME280;50314;50.618;10.642;2023-05-03T09:14:40;97636.22;;;29.25;10.51
64064;BME280;50314;50.618;10.642;2023-05-03T09:17:17;97636.38;;;29.57;10.18
64064;BME280;50314;50.618;10.642;2023-05-03T09:19:50;97640.25;;;29.94;9.95
64064;BME280;50314;50.618;10.642;2023-05-03T09:22:16;97637.59;;;30.32;9.88
64064;BME280;50314;50.618;10.642;2023-05-03T09:24:50;97636.50;;;30.65;9.31
64064;BME280;50314;50.618;10.642;2023-05-03T09:27:17;97632.88;;;31.03;9.66
64064;BME280;50314;50.618;10.642;2023-05-03T09:29:46;97633.66;;;31.35;9.34
64064;BME280;50314;50.618;10.642;2023-05-03T09:32:12;97634.41;;;31.67;8.67
64064;BME280;50314;50.618;10.642;2023-05-03T09:34:38;97636.34;;;31.97;8.52
64064;BME280;50314;50.618;10.642;2023-05-03T09:37:03;97625.47;;;32.27;8.51
64064;BME280;50314;50.618;10.642;2023-05-03T09:39:29;97627.84;;;32.53;8.13
64064;BME280;50314;50.618;10.642;2023-05-03T09:41:55;97635.63;;;32.80;7.86
64064;BME280;50314;50.618;10.642;2023-05-03T09:44:42;97634.50;;;32.99;7.22
64064;BME280;50314;50.618;10.642;2023-05-03T09:47:09;97635.81;;;33.32;7.51
64064;BME280;50314;50.618;10.642;2023-05-03T09:49:35;97631.19;;;33.56;7.46
64064;BME280;50314;50.618;10.642;2023-05-03T09:52:03;97631.38;;;33.78;7.15
64064;BME280;50314;50.618;10.642;2023-05-03T09:54:29;97623.84;;;33.97;7.53
64064;BME280;50314;50.618;10.642;2023-05-03T09:57:00;97622.59;;;34.17;7.05
64064;BME280;50314;50.618;10.642;2023-05-03T09:59:26;97615.38;;;34.39;6.74
64064;BME280;50314;50.618;10.642;2023-05-03T10:01:55;97619.56;;;34.58;6.67
64064;BME280;50314;50.618;10.642;2023-05-03T10:04:24;97615.53;;;34.78;6.53
64064;BME280;50314;50.618;10.642;2023-05-03T10:06:52;97614.47;;;34.96;6.36
64064;BME280;50314;50.618;10.642;2023-05-03T10:12:23;97617.75;;;35.31;6.45
64064;BME280;50314;50.618;10.642;2023-05-03T10:14:51;97615.94;;;35.37;6.24
64064;BME280;50314;50.618;10.642;2023-05-03T10:17:24;97602.44;;;34.97;5.95
64064;BME280;50314;50.618;10.642;2023-05-03T10:19:54;97601.53;;;34.57;6.16
64064;BME280;50314;50.618;10.642;2023-05-03T10:22:21;97599.91;;;34.16;6.75
64064;BME280;50314;50.618;10.642;2023-05-03T10:27:21;97596.63;;;34.02;6.86
64064;BME280;50314;50.618;10.642;2023-05-03T10:29:47;97591.91;;;34.26;6.59
64064;BME280;50314;50.618;10.642;2023-05-03T10:32:31;97594.88;;;34.53;6.18
64064;BME280;50314;50.618;10.642;2023-05-03T10:35:07;97588.84;;;34.85;5.90
64064;BME280;50314;50.618;10.642;2023-05-03T10:37:33;97596.22;;;35.18;6.32
64064;BME280;50314;50.618;10.642;2023-05-03T10:40:39;97590.00;;;35.45;6.12
64064;BME280;50314;50.618;10.642;2023-05-03T10:43:05;97591.59;;;35.80;5.60
64064;BME280;50314;50.618;10.642;2023-05-03T10:45:30;97582.22;;;36.03;6.04
64064;BME280;50314;50.618;10.642;2023-05-03T10:50:35;97581.09;;;36.47;6.25
64064;BME280;50314;50.618;10.642;2023-05-03T10:53:01;97576.31;;;36.65;6.20
64064;BME280;50314;50.618;10.642;2023-05-03T10:55:26;97574.41;;;36.98;6.31
64064;BME280;50314;50.618;10.642;2023-05-03T10:57:56;97575.59;;;37.17;6.37
64064;BME280;50314;50.618;10.642;2023-05-03T11:00:37;97573.53;;;37.34;6.57
64064;BME280;50314;50.618;10.642;2023-05-03T11:05:48;97561.38;;;37.78;6.68
64064;BME280;50314;50.618;10.642;2023-05-03T11:08:20;97573.22;;;37.94;6.60
64064;BME280;50314;50.618;10.642;2023-05-03T11:10:47;97567.28;;;38.12;6.74
64064;BME280;50314;50.618;10.642;2023-05-03T11:13:14;97568.38;;;38.31;6.46
64064;BME280;50314;50.618;10.642;2023-05-03T11:15:40;97566.78;;;38.46;6.94
64064;BME280;50314;50.618;10.642;2023-05-03T11:18:07;97565.66;;;38.62;6.54
64064;BME280;50314;50.618;10.642;2023-05-03T11:20:33;97565.13;;;38.75;7.15
64064;BME280;50314;50.618;10.642;2023-05-03T11:22:58;97560.16;;;38.62;6.88
64064;BME280;50314;50.618;10.642;2023-05-03T11:25:24;97551.31;;;38.35;6.88
64064;BME280;50314;50.618;10.642;2023-05-03T11:27:51;97556.75;;;37.94;7.46
64064;BME280;50314;50.618;10.642;2023-05-03T11:30:16;97556.00;;;37.51;7.14
64064;BME280;50314;50.618;10.642;2023-05-03T11:32:42;97553.03;;;37.10;6.77
64064;BME280;50314;50.618;10.642;2023-05-03T11:35:09;97546.16;;;36.70;6.81
64064;BME280;50314;50.618;10.642;2023-05-03T11:37:35;97554.09;;;36.34;6.98
64064;BME280;50314;50.618;10.642;2023-05-03T11:40:00;97547.19;;;36.05;7.36
64064;BME280;50314;50.618;10.642;2023-05-03T11:42:26;97556.22;;;35.78;7.72
64064;BME280;50314;50.618;10.642;2023-05-03T11:44:53;97551.56;;;35.57;8.19
64064;BME280;50314;50.618;10.642;2023-05-03T11:47:19;97543.66;;;35.38;8.75
64064;BME280;50314;50.618;10.642;2023-05-03T11:49:52;97540.28;;;35.14;8.23
64064;BME280;50314;50.618;10.642;2023-05-03T11:52:22;97540.09;;;34.99;8.60
64064;BME280;50314;50.618;10.642;2023-05-03T11:54:49;97542.56;;;34.83;8.72
64064;BME280;50314;50.618;10.642;2023-05-03T11:57:14;97541.75;;;34.66;9.01
64064;BME280;50314;50.618;10.642;2023-05-03T11:59:40;97537.94;;;34.50;9.46
64064;BME280;50314;50.618;10.642;2023-05-03T12:02:08;97540.88;;;34.32;9.36
64064;BME280;50314;50.618;10.642;2023-05-03T12:04:36;97534.56;;;34.14;9.26
64064;BME280;50314;50.618;10.642;2023-05-03T12:07:05;97528.78;;;33.99;9.64
64064;BME280;50314;50.618;10.642;2023-05-03T12:09:33;97533.72;;;33.85;9.87
64064;BME280;50314;50.618;10.642;2023-05-03T12:11:59;97527.50;;;33.73;10.05
64064;BME280;50314;50.618;10.642;2023-05-03T12:14:25;97531.06;;;33.62;9.90
64064;BME280;50314;50.618;10.642;2023-05-03T12:16:51;97528.38;;;33.50;10.23
64064;BME280;50314;50.618;10.642;2023-05-03T12:19:29;97524.75;;;33.33;10.14
64064;BME280;50314;50.618;10.642;2023-05-03T12:21:55;97525.22;;;33.30;10.48
64064;BME280;50314;50.618;10.642;2023-05-03T12:24:21;97522.00;;;33.21;10.49
64064;BME280;50314;50.618;10.642;2023-05-03T12:26:50;97526.41;;;33.10;10.43
64064;BME280;50314;50.618;10.642;2023-05-03T12:29:16;97525.72;;;33.03;10.67
64064;BME280;50314;50.618;10.642;2023-05-03T12:31:42;97519.78;;;32.94;10.75
64064;BME280;50314;50.618;10.642;2023-05-03T12:34:08;97517.59;;;32.85;11.01
64064;BME280;50314;50.618;10.642;2023-05-03T12:36:34;97527.81;;;32.78;9.84
64064;BME280;50314;50.618;10.642;2023-05-03T12:39:00;97517.75;;;32.66;9.16
64064;BME280;50314;50.618;10.642;2023-05-03T12:41:27;97522.94;;;32.56;8.96
64064;BME280;50314;50.618;10.642;2023-05-03T12:43:56;97522.94;;;32.44;8.47
64064;BME280;50314;50.618;10.642;2023-05-03T12:46:22;97517.19;;;32.34;8.27
64064;BME280;50314;50.618;10.642;2023-05-03T12:48:48;97517.19;;;32.22;8.37
64064;BME280;50314;50.618;10.642;2023-05-03T12:51:14;97512.31;;;32.13;8.69
64064;BME280;50314;50.618;10.642;2023-05-03T12:53:39;97508.50;;;32.02;8.26
64064;BME280;50314;50.618;10.642;2023-05-03T12:56:05;97516.13;;;31.93;8.32
64064;BME280;50314;50.618;10.642;2023-05-03T12:58:31;97516.66;;;31.83;8.15
64064;BME280;50314;50.618;10.642;2023-05-03T13:00:57;97514.53;;;31.74;8.31
64064;BME280;50314;50.618;10.642;2023-05-03T13:03:22;97503.13;;;31.65;8.26
64064;BME280;50314;50.618;10.642;2023-05-03T13:05:48;97501.16;;;31.54;8.04
64064;BME280;50314;50.618;10.642;2023-05-03T13:08:14;97511.50;;;31.45;8.20
64064;BME280;50314;50.618;10.642;2023-05-03T13:10:39;97510.16;;;31.36;8.54